sensor_id;sensor_type;location;lat;lon;timestamp;P1;P2;P0
83597;PMS5003;73565;45.774;15.892;2023-10-31T00:00:45;12;12;9
83597;PMS5003;73565;45.774;15.892;2023-10-31T00:02:45;10;10;8
83597;PMS5003;73565;45.774;15.892;2023-10-31T00:04:45;9;9;8
83597;PMS5003;73565;45.774;15.892;2023-10-31T00:06:45;10;9;7
83597;PMS5003;73565;45.774;15.892;2023-10-31T00:08:45;10;10;8
83597;PMS5003;73565;45.774;15.892;2023-10-31T00:10:45;9;9;8
83597;PMS5003;73565;45.774;15.892;2023-10-31T00:12:45;10;10;8
83597;PMS5003;73565;45.774;15.892;2023-10-31T00:14:45;9;9;7
83597;PMS5003;73565;45.774;15.892;2023-10-31T00:16:45;9;9;7
83597;PMS5003;73565;45.774;15.892;2023-10-31T00:18:45;9;9;8
83597;PMS5003;73565;45.774;15.892;2023-10-31T00:20:45;10;10;8
83597;PMS5003;73565;45.774;15.892;2023-10-31T00:22:45;9;8;7
83597;PMS5003;73565;45.774;15.892;2023-10-31T00:24:45;9;9;7
83597;PMS5003;73565;45.774;15.892;2023-10-31T00:26:45;7;7;5
83597;PMS5003;73565;45.774;15.892;2023-10-31T00:28:45;10;10;8
83597;PMS5003;73565;45.774;15.892;2023-10-31T00:30:45;9;9;7
83597;PMS5003;73565;45.774;15.892;2023-10-31T00:32:45;9;9;7
83597;PMS5003;73565;45.774;15.892;2023-10-31T00:34:45;8;8;7
83597;PMS5003;73565;45.774;15.892;2023-10-31T00:36:45;10;8;7
83597;PMS5003;73565;45.774;15.892;2023-10-31T00:38:45;8;8;7
83597;PMS5003;73565;45.774;15.892;2023-10-31T00:40:45;9;9;8
83597;PMS5003;73565;45.774;15.892;2023-10-31T00:42:45;8;8;5
83597;PMS5003;73565;45.774;15.892;2023-10-31T00:44:45;9;8;7
83597;PMS5003;73565;45.774;15.892;2023-10-31T00:46:45;9;8;5
83597;PMS5003;73565;45.774;15.892;2023-10-31T00:48:45;10;9;7
83597;PMS5003;73565;45.774;15.892;2023-10-31T00:50:45;10;9;8
83597;PMS5003;73565;45.774;15.892;2023-10-31T00:52:45;8;7;5
83597;PMS5003;73565;45.774;15.892;2023-10-31T00:54:45;7;7;7
83597;PMS5003;73565;45.774;15.892;2023-10-31T00:56:45;16;16;14
83597;PMS5003;73565;45.774;15.892;2023-10-31T00:58:45;15;14;11
83597;PMS5003;73565;45.774;15.892;2023-10-31T01:00:45;9;9;8
83597;PMS5003;73565;45.774;15.892;2023-10-31T01:02:45;10;10;7
83597;PMS5003;73565;45.774;15.892;2023-10-31T01:04:45;8;8;7
83597;PMS5003;73565;45.774;15.892;2023-10-31T01:06:45;7;7;5
83597;PMS5003;73565;45.774;15.892;2023-10-31T01:08:45;8;8;7
83597;PMS5003;73565;45.774;15.892;2023-10-31T01:10:45;8;8;5
83597;PMS5003;73565;45.774;15.892;2023-10-31T01:12:45;8;8;7
83597;PMS5003;73565;45.774;15.892;2023-10-31T01:14:45;11;10;9
83597;PMS5003;73565;45.774;15.892;2023-10-31T01:16:45;13;13;10
83597;PMS5003;73565;45.774;15.892;2023-10-31T01:18:45;9;9;8
83597;PMS5003;73565;45.774;15.892;2023-10-31T01:20:45;9;9;8
83597;PMS5003;73565;45.774;15.892;2023-10-31T01:22:45;7;7;5
83597;PMS5003;73565;45.774;15.892;2023-10-31T01:24:45;8;7;5
83597;PMS5003;73565;45.774;15.892;2023-10-31T01:26:45;7;7;5
83597;PMS5003;73565;45.774;15.892;2023-10-31T01:28:45;8;8;5
83597;PMS5003;73565;45.774;15.892;2023-10-31T01:30:45;7;7;5
83597;PMS5003;73565;45.774;15.892;2023-10-31T01:32:45;9;9;8
83597;PMS5003;73565;45.774;15.892;2023-10-31T01:34:45;8;8;8
83597;PMS5003;73565;45.774;15.892;2023-10-31T01:36:45;7;7;7
83597;PMS5003;73565;45.774;15.892;2023-10-31T01:38:45;8;8;5
83597;PMS5003;73565;45.774;15.892;2023-10-31T01:40:47;7;7;6
83597;PMS5003;73565;45.774;15.892;2023-10-31T01:42:45;8;8;7
83597;PMS5003;73565;45.774;15.892;2023-10-31T01:44:45;9;8;8
83597;PMS5003;73565;45.774;15.892;2023-10-31T01:46:45;7;7;7
83597;PMS5003;73565;45.774;15.892;2023-10-31T01:48:45;10;10;9
83597;PMS5003;73565;45.774;15.892;2023-10-31T01:50:45;9;9;8
83597;PMS5003;73565;45.774;15.892;2023-10-31T01:52:45;10;9;7
83597;PMS5003;73565;45.774;15.892;2023-10-31T01:54:45;9;9;8
83597;PMS5003;73565;45.774;15.892;2023-10-31T01:56:45;6;6;6
83597;PMS5003;73565;45.774;15.892;2023-10-31T01:58:45;8;8;7
83597;PMS5003;73565;45.774;15.892;2023-10-31T02:00:45;10;9;8
83597;PMS5003;73565;45.774;15.892;2023-10-31T02:02:45;10;9;7
83597;PMS5003;73565;45.774;15.892;2023-10-31T02:04:45;7;7;4
83597;PMS5003;73565;45.774;15.892;2023-10-31T02:06:45;8;8;7
83597;PMS5003;73565;45.774;15.892;2023-10-31T02:08:45;8;8;7
83597;PMS5003;73565;45.774;15.892;2023-10-31T02:10:45;9;8;5
83597;PMS5003;73565;45.774;15.892;2023-10-31T02:12:45;9;9;7
83597;PMS5003;73565;45.774;15.892;2023-10-31T02:14:45;8;8;6
83597;PMS5003;73565;45.774;15.892;2023-10-31T02:16:45;5;5;4
83597;PMS5003;73565;45.774;15.892;2023-10-31T02:18:45;8;7;5
83597;PMS5003;73565;45.774;15.892;2023-10-31T02:20:45;9;9;8
83597;PMS5003;73565;45.774;15.892;2023-10-31T02:22:45;10;10;9
83597;PMS5003;73565;45.774;15.892;2023-10-31T02:24:45;7;7;7
83597;PMS5003;73565;45.774;15.892;2023-10-31T02:26:45;10;10;7
83597;PMS5003;73565;45.774;15.892;2023-10-31T02:28:45;16;15;11
83597;PMS5003;73565;45.774;15.892;2023-10-31T02:30:45;12;12;9
83597;PMS5003;73565;45.774;15.892;2023-10-31T02:32:45;15;14;12
83597;PMS5003;73565;45.774;15.892;2023-10-31T02:34:45;19;19;13
83597;PMS5003;73565;45.774;15.892;2023-10-31T02:36:45;10;9;7
83597;PMS5003;73565;45.774;15.892;2023-10-31T02:38:45;15;15;13
83597;PMS5003;73565;45.774;15.892;2023-10-31T02:40:45;9;9;7
83597;PMS5003;73565;45.774;15.892;2023-10-31T02:42:45;12;12;10
83597;PMS5003;73565;45.774;15.892;2023-10-31T02:44:45;11;10;9
83597;PMS5003;73565;45.774;15.892;2023-10-31T02:46:45;14;14;10
83597;PMS5003;73565;45.774;15.892;2023-10-31T02:48:45;13;13;10
83597;PMS5003;73565;45.774;15.892;2023-10-31T02:50:45;15;15;11
83597;PMS5003;73565;45.774;15.892;2023-10-31T02:52:45;14;12;9
83597;PMS5003;73565;45.774;15.892;2023-10-31T02:54:45;13;12;9
83597;PMS5003;73565;45.774;15.892;2023-10-31T02:56:45;13;13;10
83597;PMS5003;73565;45.774;15.892;2023-10-31T02:58:45;12;12;9
83597;PMS5003;73565;45.774;15.892;2023-10-31T03:00:45;12;12;9
83597;PMS5003;73565;45.774;15.892;2023-10-31T03:04:02;11;11;9
83597;PMS5003;73565;45.774;15.892;2023-10-31T03:05:13;10;10;9
83597;PMS5003;73565;45.774;15.892;2023-10-31T03:07:13;8;8;7
83597;PMS5003;73565;45.774;15.892;2023-10-31T03:09:13;9;9;8
83597;PMS5003;73565;45.774;15.892;2023-10-31T03:11:13;12;10;7
83597;PMS5003;73565;45.774;15.892;2023-10-31T03:13:13;12;12;10
83597;PMS5003;73565;45.774;15.892;2023-10-31T03:15:13;10;10;8
83597;PMS5003;73565;45.774;15.892;2023-10-31T03:17:13;9;9;8
83597;PMS5003;73565;45.774;15.892;2023-10-31T03:19:13;10;10;8
83597;PMS5003;73565;45.774;15.892;2023-10-31T03:20:55;8;8;7
83597;PMS5003;73565;45.774;15.892;2023-10-31T03:22:39;3;3;1
83597;PMS5003;73565;45.774;15.892;2023-10-31T03:24:39;9;9;8
83597;PMS5003;73565;45.774;15.892;2023-10-31T03:26:39;8;8;8
83597;PMS5003;73565;45.774;15.892;2023-10-31T03:28:39;9;9;8
83597;PMS5003;73565;45.774;15.892;2023-10-31T03:30:39;9;9;8
83597;PMS5003;73565;45.774;15.892;2023-10-31T03:32:39;7;7;6
83597;PMS5003;73565;45.774;15.892;2023-10-31T03:34:39;7;7;6
83597;PMS5003;73565;45.774;15.892;2023-10-31T03:36:39;8;8;7
83597;PMS5003;73565;45.774;15.892;2023-10-31T03:38:39;9;9;8
83597;PMS5003;73565;45.774;15.892;2023-10-31T03:40:39;8;8;7
83597;PMS5003;73565;45.774;15.892;2023-10-31T03:42:39;5;5;5
83597;PMS5003;73565;45.774;15.892;2023-10-31T03:44:39;5;5;5
83597;PMS5003;73565;45.774;15.892;2023-10-31T03:46:39;4;4;4
83597;PMS5003;73565;45.774;15.892;2023-10-31T03:48:39;6;4;4
83597;PMS5003;73565;45.774;15.892;2023-10-31T03:50:39;4;4;3
83597;PMS5003;73565;45.774;15.892;2023-10-31T03:52:45;4;3;3
83597;PMS5003;73565;45.774;15.892;2023-10-31T03:54:45;4;4;4
83597;PMS5003;73565;45.774;15.892;2023-10-31T03:56:45;5;5;4
83597;PMS5003;73565;45.774;15.892;2023-10-31T03:58:46;7;6;4
83597;PMS5003;73565;45.774;15.892;2023-10-31T04:00:45;6;4;3
83597;PMS5003;73565;45.774;15.892;2023-10-31T04:02:45;4;4;3
83597;PMS5003;73565;45.774;15.892;2023-10-31T04:04:45;4;4;3
83597;PMS5003;73565;45.774;15.892;2023-10-31T04:06:46;5;4;4
83597;PMS5003;73565;45.774;15.892;2023-10-31T04:08:45;7;7;4
83597;PMS5003;73565;45.774;15.892;2023-10-31T04:10:45;8;6;4
83597;PMS5003;73565;45.774;15.892;2023-10-31T04:12:45;7;7;5
83597;PMS5003;73565;45.774;15.892;2023-10-31T04:14:45;7;7;6
83597;PMS5003;73565;45.774;15.892;2023-10-31T04:16:45;9;9;8
83597;PMS5003;73565;45.774;15.892;2023-10-31T04:18:45;8;8;5
83597;PMS5003;73565;45.774;15.892;2023-10-31T04:20:45;9;9;8
83597;PMS5003;73565;45.774;15.892;2023-10-31T04:22:45;9;8;7
83597;PMS5003;73565;45.774;15.892;2023-10-31T04:24:45;7;7;6
83597;PMS5003;73565;45.774;15.892;2023-10-31T04:26:45;7;7;4
83597;PMS5003;73565;45.774;15.892;2023-10-31T04:28:45;6;6;6
83597;PMS5003;73565;45.774;15.892;2023-10-31T04:30:45;6;6;4
83597;PMS5003;73565;45.774;15.892;2023-10-31T04:32:45;8;8;6
83597;PMS5003;73565;45.774;15.892;2023-10-31T04:34:45;6;6;4
83597;PMS5003;73565;45.774;15.892;2023-10-31T04:36:45;6;6;4
83597;PMS5003;73565;45.774;15.892;2023-10-31T04:38:45;8;8;7
83597;PMS5003;73565;45.774;15.892;2023-10-31T04:40:45;8;8;7
83597;PMS5003;73565;45.774;15.892;2023-10-31T04:42:45;7;7;6
83597;PMS5003;73565;45.774;15.892;2023-10-31T04:44:45;7;7;6
83597;PMS5003;73565;45.774;15.892;2023-10-31T04:46:45;8;6;4
83597;PMS5003;73565;45.774;15.892;2023-10-31T04:48:45;7;6;4
83597;PMS5003;73565;45.774;15.892;2023-10-31T04:50:45;4;4;3
83597;PMS5003;73565;45.774;15.892;2023-10-31T04:52:45;4;4;4
83597;PMS5003;73565;45.774;15.892;2023-10-31T04:54:45;6;6;4
83597;PMS5003;73565;45.774;15.892;2023-10-31T04:56:46;6;6;4
83597;PMS5003;73565;45.774;15.892;2023-10-31T04:58:45;7;7;6
83597;PMS5003;73565;45.774;15.892;2023-10-31T05:00:46;8;7;4
83597;PMS5003;73565;45.774;15.892;2023-10-31T05:02:45;4;4;4
83597;PMS5003;73565;45.774;15.892;2023-10-31T05:04:45;8;8;6
83597;PMS5003;73565;45.774;15.892;2023-10-31T05:06:45;4;4;3
83597;PMS5003;73565;45.774;15.892;2023-10-31T05:08:45;6;6;6
83597;PMS5003;73565;45.774;15.892;2023-10-31T05:10:45;6;6;4
83597;PMS5003;73565;45.774;15.892;2023-10-31T05:12:45;4;4;4
83597;PMS5003;73565;45.774;15.892;2023-10-31T05:14:45;4;4;4
83597;PMS5003;73565;45.774;15.892;2023-10-31T05:16:45;4;3;3
83597;PMS5003;73565;45.774;15.892;2023-10-31T05:18:45;4;4;3
83597;PMS5003;73565;45.774;15.892;2023-10-31T05:20:45;4;4;4
83597;PMS5003;73565;45.774;15.892;2023-10-31T05:22:45;7;7;6
83597;PMS5003;73565;45.774;15.892;2023-10-31T05:24:45;6;6;4
83597;PMS5003;73565;45.774;15.892;2023-10-31T05:26:45;7;7;6
83597;PMS5003;73565;45.774;15.892;2023-10-31T05:28:45;7;7;4
83597;PMS5003;73565;45.774;15.892;2023-10-31T05:30:45;4;4;3
83597;PMS5003;73565;45.774;15.892;2023-10-31T05:32:46;4;3;3
83597;PMS5003;73565;45.774;15.892;2023-10-31T05:34:45;6;6;4
83597;PMS5003;73565;45.774;15.892;2023-10-31T05:37:52;5;5;4
83597;PMS5003;73565;45.774;15.892;2023-10-31T05:38:54;5;5;4
83597;PMS5003;73565;45.774;15.892;2023-10-31T05:40:54;7;7;5
83597;PMS5003;73565;45.774;15.892;2023-10-31T05:42:54;7;7;4
83597;PMS5003;73565;45.774;15.892;2023-10-31T05:44:54;6;6;4
83597;PMS5003;73565;45.774;15.892;2023-10-31T05:46:54;3;3;3
83597;PMS5003;73565;45.774;15.892;2023-10-31T05:48:54;4;4;4
83597;PMS5003;73565;45.774;15.892;2023-10-31T05:50:54;4;4;3
83597;PMS5003;73565;45.774;15.892;2023-10-31T05:52:54;4;4;3
83597;PMS5003;73565;45.774;15.892;2023-10-31T05:54:54;6;6;4
83597;PMS5003;73565;45.774;15.892;2023-10-31T05:56:54;4;4;3
83597;PMS5003;73565;45.774;15.892;2023-10-31T05:58:54;6;6;4
83597;PMS5003;73565;45.774;15.892;2023-10-31T06:00:54;8;7;6
83597;PMS5003;73565;45.774;15.892;2023-10-31T06:02:54;7;7;6
83597;PMS5003;73565;45.774;15.892;2023-10-31T06:04:54;7;7;6
83597;PMS5003;73565;45.774;15.892;2023-10-31T06:06:54;7;7;7
83597;PMS5003;73565;45.774;15.892;2023-10-31T06:08:54;7;6;4
83597;PMS5003;73565;45.774;15.892;2023-10-31T06:10:54;9;7;4
83597;PMS5003;73565;45.774;15.892;2023-10-31T06:12:54;6;6;3
83597;PMS5003;73565;45.774;15.892;2023-10-31T06:14:54;7;6;4
83597;PMS5003;73565;45.774;15.892;2023-10-31T06:16:54;8;7;6
83597;PMS5003;73565;45.774;15.892;2023-10-31T06:18:54;6;6;4
83597;PMS5003;73565;45.774;15.892;2023-10-31T06:20:54;7;6;6
83597;PMS5003;73565;45.774;15.892;2023-10-31T06:22:54;8;7;4
83597;PMS5003;73565;45.774;15.892;2023-10-31T06:24:54;6;6;6
83597;PMS5003;73565;45.774;15.892;2023-10-31T06:26:54;3;3;3
83597;PMS5003;73565;45.774;15.892;2023-10-31T06:28:54;7;7;7
83597;PMS5003;73565;45.774;15.892;2023-10-31T06:30:54;10;9;8
83597;PMS5003;73565;45.774;15.892;2023-10-31T06:32:54;7;7;7
83597;PMS5003;73565;45.774;15.892;2023-10-31T06:34:54;9;9;7
83597;PMS5003;73565;45.774;15.892;2023-10-31T06:36:54;12;10;8
83597;PMS5003;73565;45.774;15.892;2023-10-31T06:38:54;9;9;8
83597;PMS5003;73565;45.774;15.892;2023-10-31T06:40:54;8;8;8
83597;PMS5003;73565;45.774;15.892;2023-10-31T06:42:54;12;9;8
83597;PMS5003;73565;45.774;15.892;2023-10-31T06:44:54;8;7;7
83597;PMS5003;73565;45.774;15.892;2023-10-31T06:46:54;10;9;7
83597;PMS5003;73565;45.774;15.892;2023-10-31T06:48:54;7;7;4
83597;PMS5003;73565;45.774;15.892;2023-10-31T06:50:54;13;11;8
83597;PMS5003;73565;45.774;15.892;2023-10-31T06:52:54;9;8;7
83597;PMS5003;73565;45.774;15.892;2023-10-31T06:54:54;10;8;7
83597;PMS5003;73565;45.774;15.892;2023-10-31T06:56:54;9;9;7
83597;PMS5003;73565;45.774;15.892;2023-10-31T06:58:54;8;8;7
83597;PMS5003;73565;45.774;15.892;2023-10-31T07:00:54;12;12;9
83597;PMS5003;73565;45.774;15.892;2023-10-31T07:02:54;10;10;9
83597;PMS5003;73565;45.774;15.892;2023-10-31T07:04:54;10;9;8
83597;PMS5003;73565;45.774;15.892;2023-10-31T07:06:55;8;7;4
83597;PMS5003;73565;45.774;15.892;2023-10-31T07:08:55;13;11;9
83597;PMS5003;73565;45.774;15.892;2023-10-31T07:10:54;8;8;7
83597;PMS5003;73565;45.774;15.892;2023-10-31T07:12:54;10;10;9
83597;PMS5003;73565;45.774;15.892;2023-10-31T07:14:54;9;9;8
83597;PMS5003;73565;45.774;15.892;2023-10-31T07:16:57;12;12;9
83597;PMS5003;73565;45.774;15.892;2023-10-31T07:18:55;10;10;8
83597;PMS5003;73565;45.774;15.892;2023-10-31T07:20:54;15;15;11
83597;PMS5003;73565;45.774;15.892;2023-10-31T07:22:55;12;12;9
83597;PMS5003;73565;45.774;15.892;2023-10-31T07:24:54;10;10;8
83597;PMS5003;73565;45.774;15.892;2023-10-31T07:26:54;14;12;9
83597;PMS5003;73565;45.774;15.892;2023-10-31T07:28:55;9;9;8
83597;PMS5003;73565;45.774;15.892;2023-10-31T07:30:54;12;12;9
83597;PMS5003;73565;45.774;15.892;2023-10-31T07:32:55;13;13;9
83597;PMS5003;73565;45.774;15.892;2023-10-31T07:34:55;9;9;7
83597;PMS5003;73565;45.774;15.892;2023-10-31T07:36:55;1;1;0
83597;PMS5003;73565;45.774;15.892;2023-10-31T07:38:55;8;8;7
83597;PMS5003;73565;45.774;15.892;2023-10-31T07:40:54;7;6;4
83597;PMS5003;73565;45.774;15.892;2023-10-31T07:42:54;3;3;3
83597;PMS5003;73565;45.774;15.892;2023-10-31T07:44:54;6;6;6
83597;PMS5003;73565;45.774;15.892;2023-10-31T07:46:54;6;4;3
83597;PMS5003;73565;45.774;15.892;2023-10-31T07:48:58;6;6;4
83597;PMS5003;73565;45.774;15.892;2023-10-31T07:50:54;7;6;6
83597;PMS5003;73565;45.774;15.892;2023-10-31T07:52:54;5;5;4
83597;PMS5003;73565;45.774;15.892;2023-10-31T07:54:55;7;7;5
83597;PMS5003;73565;45.774;15.892;2023-10-31T07:56:54;7;7;6
83597;PMS5003;73565;45.774;15.892;2023-10-31T07:58:54;3;2;2
83597;PMS5003;73565;45.774;15.892;2023-10-31T08:00:54;7;5;4
83597;PMS5003;73565;45.774;15.892;2023-10-31T08:02:54;4;4;3
83597;PMS5003;73565;45.774;15.892;2023-10-31T08:04:54;4;3;2
83597;PMS5003;73565;45.774;15.892;2023-10-31T08:06:54;6;6;4
83597;PMS5003;73565;45.774;15.892;2023-10-31T08:08:55;5;4;4
83597;PMS5003;73565;45.774;15.892;2023-10-31T08:10:55;3;3;3
83597;PMS5003;73565;45.774;15.892;2023-10-31T08:12:54;4;4;3
83597;PMS5003;73565;45.774;15.892;2023-10-31T08:14:55;4;4;4
83597;PMS5003;73565;45.774;15.892;2023-10-31T08:16:54;7;7;5
83597;PMS5003;73565;45.774;15.892;2023-10-31T08:18:55;5;4;3
83597;PMS5003;73565;45.774;15.892;2023-10-31T08:20:54;5;4;4
83597;PMS5003;73565;45.774;15.892;2023-10-31T08:24:57;4;4;3
83597;PMS5003;73565;45.774;15.892;2023-10-31T08:26:56;5;5;5
83597;PMS5003;73565;45.774;15.892;2023-10-31T08:28:54;7;7;4
83597;PMS5003;73565;45.774;15.892;2023-10-31T08:30:54;5;5;4
83597;PMS5003;73565;45.774;15.892;2023-10-31T08:32:54;5;5;4
83597;PMS5003;73565;45.774;15.892;2023-10-31T08:34:54;4;4;3
83597;PMS5003;73565;45.774;15.892;2023-10-31T08:36:54;5;5;4
83597;PMS5003;73565;45.774;15.892;2023-10-31T08:38:54;4;4;3
83597;PMS5003;73565;45.774;15.892;2023-10-31T08:40:54;7;5;4
83597;PMS5003;73565;45.774;15.892;2023-10-31T08:42:54;5;5;4
83597;PMS5003;73565;45.774;15.892;2023-10-31T08:44:54;7;7;5
83597;PMS5003;73565;45.774;15.892;2023-10-31T08:46:54;14;11;9
83597;PMS5003;73565;45.774;15.892;2023-10-31T08:48:54;10;10;8
83597;PMS5003;73565;45.774;15.892;2023-10-31T08:50:54;12;11;9
83597;PMS5003;73565;45.774;15.892;2023-10-31T08:52:54;17;15;11
83597;PMS5003;73565;45.774;15.892;2023-10-31T08:54:54;13;12;11
83597;PMS5003;73565;45.774;15.892;2023-10-31T08:56:54;15;14;10
83597;PMS5003;73565;45.774;15.892;2023-10-31T08:58:54;11;11;10
83597;PMS5003;73565;45.774;15.892;2023-10-31T09:00:54;12;12;10
83597;PMS5003;73565;45.774;15.892;2023-10-31T09:02:54;6;6;5
83597;PMS5003;73565;45.774;15.892;2023-10-31T09:04:54;2;2;1
83597;PMS5003;73565;45.774;15.892;2023-10-31T09:06:54;1;1;1
83597;PMS5003;73565;45.774;15.892;2023-10-31T09:08:54;0;0;0
83597;PMS5003;73565;45.774;15.892;2023-10-31T09:10:54;0;0;0
83597;PMS5003;73565;45.774;15.892;2023-10-31T09:13:39;0;0;0
83597;PMS5003;73565;45.774;15.892;2023-10-31T09:14:47;0;0;0
83597;PMS5003;73565;45.774;15.892;2023-10-31T09:16:47;0;0;0
83597;PMS5003;73565;45.774;15.892;2023-10-31T09:18:47;0;0;0
83597;PMS5003;73565;45.774;15.892;2023-10-31T09:20:47;0;0;0
83597;PMS5003;73565;45.774;15.892;2023-10-31T09:22:47;0;0;0
83597;PMS5003;73565;45.774;15.892;2023-10-31T09:24:47;1;0;0
83597;PMS5003;73565;45.774;15.892;2023-10-31T09:26:48;0;0;0
83597;PMS5003;73565;45.774;15.892;2023-10-31T09:28:47;0;0;0
83597;PMS5003;73565;45.774;15.892;2023-10-31T09:30:47;0;0;0
83597;PMS5003;73565;45.774;15.892;2023-10-31T09:32:47;1;0;0
83597;PMS5003;73565;45.774;15.892;2023-10-31T09:34:47;0;0;0
83597;PMS5003;73565;45.774;15.892;2023-10-31T09:36:47;1;0;0
83597;PMS5003;73565;45.774;15.892;2023-10-31T09:38:47;0;0;0
83597;PMS5003;73565;45.774;15.892;2023-10-31T09:40:47;0;0;0
83597;PMS5003;73565;45.774;15.892;2023-10-31T09:42:47;0;0;0
83597;PMS5003;73565;45.774;15.892;2023-10-31T09:44:47;0;0;0
83597;PMS5003;73565;45.774;15.892;2023-10-31T09:46:47;0;0;0
83597;PMS5003;73565;45.774;15.892;2023-10-31T09:48:47;0;0;0
83597;PMS5003;73565;45.774;15.892;2023-10-31T09:50:47;0;0;0
83597;PMS5003;73565;45.774;15.892;2023-10-31T09:52:47;0;0;0
83597;PMS5003;73565;45.774;15.892;2023-10-31T09:54:47;0;0;0
83597;PMS5003;73565;45.774;15.892;2023-10-31T09:56:47;0;0;0
83597;PMS5003;73565;45.774;15.892;2023-10-31T09:58:47;0;0;0
83597;PMS5003;73565;45.774;15.892;2023-10-31T10:00:47;0;0;0
83597;PMS5003;73565;45.774;15.892;2023-10-31T10:02:47;0;0;0
83597;PMS5003;73565;45.774;15.892;2023-10-31T10:04:53;0;0;0
83597;PMS5003;73565;45.774;15.892;2023-10-31T10:06:57;0;0;0
83597;PMS5003;73565;45.774;15.892;2023-10-31T10:08:47;0;0;0
83597;PMS5003;73565;45.774;15.892;2023-10-31T10:10:47;0;0;0
83597;PMS5003;73565;45.774;15.892;2023-10-31T10:12:47;0;0;0
83597;PMS5003;73565;45.774;15.892;2023-10-31T10:14:50;0;0;0
83597;PMS5003;73565;45.774;15.892;2023-10-31T10:16:47;0;0;0
83597;PMS5003;73565;45.774;15.892;2023-10-31T10:18:47;0;0;0
83597;PMS5003;73565;45.774;15.892;2023-10-31T10:20:53;0;0;0
83597;PMS5003;73565;45.774;15.892;2023-10-31T10:22:47;0;0;0
83597;PMS5003;73565;45.774;15.892;2023-10-31T10:24:47;0;0;0
83597;PMS5003;73565;45.774;15.892;2023-10-31T10:26:47;0;0;0
83597;PMS5003;73565;45.774;15.892;2023-10-31T10:28:50;0;0;0
83597;PMS5003;73565;45.774;15.892;2023-10-31T10:30:47;0;0;0
83597;PMS5003;73565;45.774;15.892;2023-10-31T10:32:34;0;0;0
83597;PMS5003;73565;45.774;15.892;2023-10-31T10:34:34;0;0;0
83597;PMS5003;73565;45.774;15.892;2023-10-31T10:36:35;0;0;0
83597;PMS5003;73565;45.774;15.892;2023-10-31T10:37:09;0;0;0
83597;PMS5003;73565;45.774;15.892;2023-10-31T10:38:29;0;0;0
83597;PMS5003;73565;45.774;15.892;2023-10-31T10:40:29;0;0;0
83597;PMS5003;73565;45.774;15.892;2023-10-31T10:42:33;0;0;0
83597;PMS5003;73565;45.774;15.892;2023-10-31T10:44:31;0;0;0
83597;PMS5003;73565;45.774;15.892;2023-10-31T10:46:29;0;0;0
83597;PMS5003;73565;45.774;15.892;2023-10-31T10:48:29;0;0;0
83597;PMS5003;73565;45.774;15.892;2023-10-31T10:50:29;0;0;0
83597;PMS5003;73565;45.774;15.892;2023-10-31T10:52:33;0;0;0
83597;PMS5003;73565;45.774;15.892;2023-10-31T10:54:31;0;0;0
83597;PMS5003;73565;45.774;15.892;2023-10-31T10:56:30;0;0;0
83597;PMS5003;73565;45.774;15.892;2023-10-31T10:58:31;0;0;0
83597;PMS5003;73565;45.774;15.892;2023-10-31T11:00:29;0;0;0
83597;PMS5003;73565;45.774;15.892;2023-10-31T11:02:29;1;1;0
83597;PMS5003;73565;45.774;15.892;2023-10-31T11:04:29;0;0;0
83597;PMS5003;73565;45.774;15.892;2023-10-31T11:06:29;1;1;1
83597;PMS5003;73565;45.774;15.892;2023-10-31T11:08:31;0;0;0
83597;PMS5003;73565;45.774;15.892;2023-10-31T11:10:29;0;0;0
83597;PMS5003;73565;45.774;15.892;2023-10-31T11:12:29;0;0;0
83597;PMS5003;73565;45.774;15.892;2023-10-31T11:14:29;0;0;0
83597;PMS5003;73565;45.774;15.892;2023-10-31T11:16:34;0;0;0
83597;PMS5003;73565;45.774;15.892;2023-10-31T11:18:29;0;0;0
83597;PMS5003;73565;45.774;15.892;2023-10-31T11:20:29;1;1;1
83597;PMS5003;73565;45.774;15.892;2023-10-31T11:22:29;0;0;0
83597;PMS5003;73565;45.774;15.892;2023-10-31T11:24:30;0;0;0
83597;PMS5003;73565;45.774;15.892;2023-10-31T11:26:29;1;1;0
83597;PMS5003;73565;45.774;15.892;2023-10-31T11:28:29;1;1;1
83597;PMS5003;73565;45.774;15.892;2023-10-31T11:30:30;0;0;0
83597;PMS5003;73565;45.774;15.892;2023-10-31T11:32:31;0;0;0
83597;PMS5003;73565;45.774;15.892;2023-10-31T11:34:29;0;0;0
83597;PMS5003;73565;45.774;15.892;2023-10-31T11:36:29;1;1;0
83597;PMS5003;73565;45.774;15.892;2023-10-31T11:38:32;1;1;0
83597;PMS5003;73565;45.774;15.892;2023-10-31T11:40:29;1;1;0
83597;PMS5003;73565;45.774;15.892;2023-10-31T12:09:20;0;0;0
83597;PMS5003;73565;45.774;15.892;2023-10-31T12:11:22;0;0;0
83597;PMS5003;73565;45.774;15.892;2023-10-31T12:13:20;0;0;0
83597;PMS5003;73565;45.774;15.892;2023-10-31T12:15:21;0;0;0
83597;PMS5003;73565;45.774;15.892;2023-10-31T12:17:20;0;0;0
83597;PMS5003;73565;45.774;15.892;2023-10-31T12:19:20;0;0;0
83597;PMS5003;73565;45.774;15.892;2023-10-31T12:21:20;0;0;0
83597;PMS5003;73565;45.774;15.892;2023-10-31T12:23:21;0;0;0
83597;PMS5003;73565;45.774;15.892;2023-10-31T12:25:20;0;0;0
83597;PMS5003;73565;45.774;15.892;2023-10-31T12:27:20;0;0;0
83597;PMS5003;73565;45.774;15.892;2023-10-31T12:29:20;0;0;0
83597;PMS5003;73565;45.774;15.892;2023-10-31T12:31:20;0;0;0
83597;PMS5003;73565;45.774;15.892;2023-10-31T12:33:21;0;0;0
83597;PMS5003;73565;45.774;15.892;2023-10-31T12:35:21;0;0;0
83597;PMS5003;73565;45.774;15.892;2023-10-31T12:37:20;0;0;0
83597;PMS5003;73565;45.774;15.892;2023-10-31T12:39:21;0;0;0
83597;PMS5003;73565;45.774;15.892;2023-10-31T12:41:20;0;0;0
83597;PMS5003;73565;45.774;15.892;2023-10-31T12:43:21;0;0;0
83597;PMS5003;73565;45.774;15.892;2023-10-31T12:45:21;0;0;0
83597;PMS5003;73565;45.774;15.892;2023-10-31T12:47:24;0;0;0
83597;PMS5003;73565;45.774;15.892;2023-10-31T12:49:20;0;0;0
83597;PMS5003;73565;45.774;15.892;2023-10-31T12:51:20;0;0;0
83597;PMS5003;73565;45.774;15.892;2023-10-31T12:52:08;0;0;0
83597;PMS5003;73565;45.774;15.892;2023-10-31T12:53:37;0;0;0
83597;PMS5003;73565;45.774;15.892;2023-10-31T12:55:41;0;0;0
83597;PMS5003;73565;45.774;15.892;2023-10-31T12:57:39;0;0;0
83597;PMS5003;73565;45.774;15.892;2023-10-31T12:59:37;0;0;0
83597;PMS5003;73565;45.774;15.892;2023-10-31T13:01:38;0;0;0
83597;PMS5003;73565;45.774;15.892;2023-10-31T13:03:37;0;0;0
83597;PMS5003;73565;45.774;15.892;2023-10-31T13:05:37;0;0;0
83597;PMS5003;73565;45.774;15.892;2023-10-31T13:07:40;0;0;0
83597;PMS5003;73565;45.774;15.892;2023-10-31T13:09:37;0;0;0
83597;PMS5003;73565;45.774;15.892;2023-10-31T13:11:37;1;1;1
83597;PMS5003;73565;45.774;15.892;2023-10-31T13:13:36;1;0;0
83597;PMS5003;73565;45.774;15.892;2023-10-31T13:15:36;1;0;0
83597;PMS5003;73565;45.774;15.892;2023-10-31T13:17:36;1;1;1
83597;PMS5003;73565;45.774;15.892;2023-10-31T13:19:37;1;1;1
83597;PMS5003;73565;45.774;15.892;2023-10-31T13:21:36;0;0;0
83597;PMS5003;73565;45.774;15.892;2023-10-31T13:23:37;2;2;2
83597;PMS5003;73565;45.774;15.892;2023-10-31T13:25:39;1;1;1
83597;PMS5003;73565;45.774;15.892;2023-10-31T13:29:38;0;0;0
83597;PMS5003;73565;45.774;15.892;2023-10-31T13:31:38;0;0;0
83597;PMS5003;73565;45.774;15.892;2023-10-31T13:33:38;0;0;0
83597;PMS5003;73565;45.774;15.892;2023-10-31T13:35:38;0;0;0
83597;PMS5003;73565;45.774;15.892;2023-10-31T13:37:38;1;1;0